Time;durP1;ratioP1;P1;durP2;ratioP2;P2;SDS_P1;SDS_P2;PMS_P1;PMS_P2;Temp;Humidity;BMP_temperature;BMP_pressure;BME280_temperature;BME280_humidity;BME280_pressure;Samples;Min_cycle;Max_cycle;Signal;HPM_P1;HPM_P2
2022/08/30 00:02:35;;;;;;;13.00;7.80;;;;;;;16.25;100.00;91154.56;5073079;28;20545;-65
2022/08/30 00:05:01;;;;;;;10.35;7.78;;;;;;;16.06;100.00;91149.78;5072681;28;20064;-64
2022/08/30 00:07:27;;;;;;;9.85;7.22;;;;;;;15.98;100.00;91153.34;5072900;28;20116;-64
2022/08/30 00:09:52;;;;;;;10.95;8.23;;;;;;;15.91;100.00;91153.13;5072883;28;20111;-64
2022/08/30 00:12:19;;;;;;;10.80;7.57;;;;;;;15.87;100.00;91159.16;5072781;28;20555;-64
2022/08/30 00:14:45;;;;;;;11.30;8.43;;;;;;;15.88;100.00;91155.34;5072715;28;20028;-64
2022/08/30 00:17:11;;;;;;;13.30;8.60;;;;;;;15.91;100.00;91169.22;5072721;28;20119;-64
2022/08/30 00:19:37;;;;;;;10.45;7.78;;;;;;;15.96;100.00;91158.28;5072737;28;20067;-64
2022/08/30 00:22:05;;;;;;;9.98;7.07;;;;;;;15.93;100.00;91167.75;5072707;28;20048;-64
2022/08/30 00:24:30;;;;;;;10.50;8.80;;;;;;;15.97;100.00;91167.91;5072785;28;20093;-64
2022/08/30 00:26:56;;;;;;;12.65;8.40;;;;;;;15.93;100.00;91167.75;5072632;28;20021;-64
2022/08/30 00:29:21;;;;;;;10.13;7.85;;;;;;;15.87;100.00;91159.16;5072557;28;20122;-64
2022/08/30 00:31:47;;;;;;;10.43;7.53;;;;;;;15.95;100.00;91170.13;5072481;28;20023;-64
2022/08/30 00:34:13;;;;;;;10.40;7.63;;;;;;;16.01;100.00;91174.16;5072332;28;20111;-64
2022/08/30 00:36:38;;;;;;;9.35;7.00;;;;;;;15.99;100.00;91166.44;5072299;28;20032;-64
2022/08/30 00:39:05;;;;;;;10.23;7.43;;;;;;;16.02;100.00;91176.50;5072310;28;20027;-64
2022/08/30 00:41:30;;;;;;;11.00;7.40;;;;;;;15.98;100.00;91178.28;5071185;28;20028;-64
2022/08/30 00:43:56;;;;;;;9.02;7.50;;;;;;;16.03;100.00;91169.22;5072038;28;20035;-64
2022/08/30 00:46:22;;;;;;;10.95;7.68;;;;;;;16.00;100.00;91165.31;5072430;28;20448;-64
2022/08/30 00:48:49;;;;;;;16.17;8.15;;;;;;;16.03;100.00;91175.38;5072115;28;20029;-64
2022/08/30 00:51:16;;;;;;;10.10;7.75;;;;;;;16.06;100.00;91177.38;5072110;28;20032;-64
2022/08/30 00:53:47;;;;;;;12.30;8.02;;;;;;;16.15;100.00;91174.59;5071947;28;20032;-64
2022/08/30 00:56:14;;;;;;;10.82;7.57;;;;;;;16.14;100.00;91178.41;5071994;28;20485;-65
2022/08/30 00:58:44;;;;;;;12.45;7.13;;;;;;;16.16;100.00;91176.16;5071914;28;20039;-65
2022/08/30 01:01:10;;;;;;;11.02;8.10;;;;;;;16.18;100.00;91176.59;5071894;28;20025;-65
2022/08/30 01:03:37;;;;;;;10.13;7.97;;;;;;;16.18;100.00;91182.75;5071749;28;20036;-65
2022/08/30 01:06:04;;;;;;;9.98;7.40;;;;;;;16.25;100.00;91179.50;5071623;28;20056;-65
2022/08/30 01:08:29;;;;;;;10.27;7.88;;;;;;;16.23;100.00;91170.22;5071727;28;20021;-64
2022/08/30 01:10:56;;;;;;;11.77;7.03;;;;;;;16.14;100.00;91178.41;5071694;28;20024;-64
2022/08/30 01:13:24;;;;;;;9.63;7.13;;;;;;;16.08;100.00;91182.41;5071590;28;20025;-64
2022/08/30 01:15:50;;;;;;;9.70;6.85;;;;;;;16.07;100.00;91167.44;5068536;28;20109;-64
2022/08/30 01:18:17;;;;;;;12.23;7.25;;;;;;;16.10;100.00;91166.78;5071633;28;20032;-65
2022/08/30 01:21:02;;;;;;;11.52;7.90;;;;;;;16.14;100.00;91163.09;5071464;28;20068;-65
2022/08/30 01:23:30;;;;;;;12.75;8.38;;;;;;;16.19;100.00;91162.06;5071245;28;20127;-64
2022/08/30 01:25:56;;;;;;;12.57;8.65;;;;;;;16.23;100.00;91156.81;5071528;28;20070;-64
2022/08/30 01:28:24;;;;;;;11.93;6.60;;;;;;;16.21;100.00;91159.81;5071440;28;20025;-65
2022/08/30 01:30:51;;;;;;;9.00;6.65;;;;;;;16.09;100.00;91146.41;5071412;28;20147;-65
2022/08/30 01:33:18;;;;;;;12.75;7.72;;;;;;;16.12;100.00;91153.81;5071609;28;20020;-65
2022/08/30 01:36:02;;;;;;;9.65;6.30;;;;;;;16.05;100.00;91157.03;5071406;28;20025;-65
2022/08/30 01:38:38;;;;;;;14.10;7.72;;;;;;;16.03;100.00;91155.81;5071556;28;20048;-65
2022/08/30 01:41:20;;;;;;;7.82;6.07;;;;;;;16.06;100.00;91155.13;5071348;28;20089;-65
2022/08/30 01:43:47;;;;;;;8.88;6.95;;;;;;;16.07;100.00;91154.78;5071105;28;20078;-65
2022/08/30 01:46:14;;;;;;;9.50;7.05;;;;;;;16.00;100.00;91151.13;5071277;28;20108;-65
2022/08/30 01:48:41;;;;;;;9.25;7.43;;;;;;;15.91;100.00;91147.75;5071427;28;20021;-65
2022/08/30 01:51:10;;;;;;;6.95;6.10;;;;;;;15.86;100.00;91141.50;5071216;28;20032;-65
2022/08/30 01:53:36;;;;;;;8.18;6.20;;;;;;;15.82;100.00;91135.25;5070825;28;20032;-65
2022/08/30 01:56:01;;;;;;;11.95;7.15;;;;;;;15.76;100.00;91147.28;5071128;28;20095;-65
2022/08/30 01:58:27;;;;;;;9.65;7.20;;;;;;;15.77;100.00;91143.50;5071093;28;20039;-65
2022/08/30 02:00:53;;;;;;;9.55;7.65;;;;;;;15.77;100.00;91148.06;5071094;28;20032;-65
2022/08/30 02:03:18;;;;;;;10.85;8.18;;;;;;;15.80;100.00;91142.06;5070929;28;20155;-65
2022/08/30 02:05:44;;;;;;;14.95;9.32;;;;;;;15.87;100.00;91143.06;5213556;22;20079;-65
2022/08/30 02:08:09;;;;;;;11.90;7.20;;;;;;;15.87;100.00;91137.69;5091302;28;20016;-65
2022/08/30 02:10:35;;;;;;;9.40;7.30;;;;;;;15.84;100.00;91143.75;5091195;28;20123;-65
2022/08/30 02:13:01;;;;;;;9.30;6.25;;;;;;;15.81;100.00;91135.59;5091247;28;20022;-65
2022/08/30 02:15:27;;;;;;;8.68;6.25;;;;;;;15.79;100.00;91135.13;5091197;28;20120;-65
2022/08/30 02:17:52;;;;;;;9.82;6.75;;;;;;;15.73;100.00;91136.47;5091219;28;20490;-65
2022/08/30 02:20:18;;;;;;;9.93;7.28;;;;;;;15.78;100.00;91129.00;5090869;28;20458;-65
2022/08/30 02:22:45;;;;;;;9.98;7.07;;;;;;;15.85;100.00;91133.78;5091041;28;20028;-65
2022/08/30 02:25:10;;;;;;;10.07;7.55;;;;;;;15.81;100.00;91133.69;5090882;28;20610;-65
2022/08/30 02:27:36;;;;;;;10.38;6.70;;;;;;;15.87;100.00;91136.91;5091062;28;20036;-65
2022/08/30 02:30:05;;;;;;;11.32;7.18;;;;;;;15.90;100.00;91146.97;5091059;28;20032;-65
2022/08/30 02:32:30;;;;;;;10.90;7.03;;;;;;;15.86;100.00;91151.44;5091239;28;20036;-65
2022/08/30 02:34:55;;;;;;;9.05;6.70;;;;;;;15.83;100.00;91149.44;5090904;28;20039;-65
2022/08/30 02:37:21;;;;;;;9.18;6.78;;;;;;;15.78;100.00;91152.31;5091030;28;20463;-65
2022/08/30 02:39:46;;;;;;;8.23;6.03;;;;;;;15.67;100.00;91146.63;5091179;28;20111;-65
2022/08/30 02:42:12;;;;;;;11.15;6.88;;;;;;;15.70;100.00;91145.19;5090693;28;20035;-65
2022/08/30 02:44:37;;;;;;;14.65;7.15;;;;;;;15.72;100.00;91140.25;5090824;28;20028;-65
2022/08/30 02:47:03;;;;;;;8.93;7.32;;;;;;;15.79;100.00;91135.13;5072716;28;20460;-65
2022/08/30 02:49:28;;;;;;;8.38;6.25;;;;;;;15.75;100.00;91126.97;5090857;28;20063;-65
2022/08/30 02:51:54;;;;;;;9.60;7.15;;;;;;;15.71;100.00;91133.34;5090806;28;20485;-65
2022/08/30 02:54:19;;;;;;;8.23;6.32;;;;;;;15.71;100.00;91136.00;5090673;28;20077;-65
2022/08/30 02:56:46;;;;;;;7.93;6.13;;;;;;;15.70;100.00;91134.44;5090813;28;20028;-65
2022/08/30 02:59:13;;;;;;;9.15;6.95;;;;;;;15.76;100.00;91133.09;5090778;28;20028;-65
2022/08/30 03:01:38;;;;;;;10.63;7.82;;;;;;;15.78;100.00;91131.69;5090730;28;20028;-65
2022/08/30 03:04:04;;;;;;;9.00;6.78;;;;;;;15.77;100.00;91124.72;5091115;28;20028;-65
2022/08/30 03:06:30;;;;;;;10.43;6.85;;;;;;;15.80;100.00;91124.06;5094082;28;20432;-65
2022/08/30 03:08:55;;;;;;;9.15;6.68;;;;;;;15.78;100.00;91126.31;5094380;28;20055;-65
2022/08/30 03:11:21;;;;;;;8.80;6.57;;;;;;;15.79;100.00;91127.09;5094306;28;20107;-65
2022/08/30 03:13:47;;;;;;;11.20;7.60;;;;;;;15.74;100.00;91130.75;5094250;28;20051;-65
2022/08/30 03:16:12;;;;;;;11.68;8.25;;;;;;;15.66;100.00;91130.88;5094095;28;20031;-65
2022/08/30 03:18:38;;;;;;;11.23;8.20;;;;;;;15.56;100.00;91145.47;5094158;28;20027;-65
2022/08/30 03:21:10;;;;;;;13.80;9.20;;;;;;;15.50;100.00;91144.13;5094154;28;20028;-65
2022/08/30 03:23:35;;;;;;;13.48;7.57;;;;;;;15.44;100.00;91145.44;5093896;28;20390;-65
2022/08/30 03:26:00;;;;;;;10.15;7.50;;;;;;;15.39;100.00;91134.94;5093907;28;20043;-65
2022/08/30 03:28:26;;;;;;;9.25;6.97;;;;;;;15.36;100.00;91138.28;5093929;28;20028;-66
2022/08/30 03:30:51;;;;;;;8.77;6.97;;;;;;;15.40;100.00;91136.50;5093965;28;20035;-65
2022/08/30 03:33:17;;;;;;;11.45;7.65;;;;;;;15.47;100.00;91134.84;5093910;28;20020;-67
2022/08/30 03:35:43;;;;;;;9.23;6.88;;;;;;;15.52;100.00;91131.16;5075512;28;20032;-67
2022/08/30 03:38:08;;;;;;;9.38;6.90;;;;;;;15.50;100.00;91123.47;5093632;28;20024;-66
2022/08/30 03:40:34;;;;;;;8.75;6.50;;;;;;;15.52;100.00;91125.78;5093669;28;20085;-65
2022/08/30 03:43:00;;;;;;;9.57;6.80;;;;;;;15.59;100.00;91126.03;5093628;28;20507;-65
2022/08/30 03:45:25;;;;;;;7.82;6.47;;;;;;;15.64;100.00;91127.75;5093568;28;20032;-66
2022/08/30 03:47:51;;;;;;;12.27;7.95;;;;;;;15.57;100.00;91122.88;5093647;28;20405;-67
2022/08/30 03:50:16;;;;;;;10.27;7.47;;;;;;;15.59;100.00;91126.03;5093500;28;20394;-67
2022/08/30 03:52:44;;;;;;;10.35;7.30;;;;;;;15.69;100.00;91130.22;5093512;28;20103;-66
2022/08/30 03:55:10;;;;;;;10.00;7.18;;;;;;;15.72;100.00;91133.00;5075096;28;20093;-67
2022/08/30 03:57:35;;;;;;;8.50;7.20;;;;;;;15.77;100.00;91130.09;5093466;28;20028;-67
2022/08/30 04:00:01;;;;;;;9.68;7.13;;;;;;;15.83;100.00;91139.50;5093395;28;20500;-67
2022/08/30 04:02:27;;;;;;;10.15;7.97;;;;;;;15.76;100.00;91139.25;5093185;28;20164;-67
2022/08/30 04:04:52;;;;;;;8.88;7.32;;;;;;;15.78;100.00;91144.28;5093168;28;20119;-67
2022/08/30 04:07:18;;;;;;;10.98;7.25;;;;;;;15.82;100.00;91143.28;5093248;28;20055;-67
2022/08/30 04:09:43;;;;;;;10.90;7.63;;;;;;;15.91;100.00;91145.06;5093377;28;20450;-67
2022/08/30 04:12:09;;;;;;;10.60;7.55;;;;;;;15.97;100.00;91143.75;5093099;28;20483;-67
2022/08/30 04:14:34;;;;;;;13.02;8.35;;;;;;;16.05;100.00;91142.84;5092957;28;20056;-67
2022/08/30 04:17:01;;;;;;;9.07;7.30;;;;;;;15.98;100.00;91153.34;5075069;28;20059;-67
2022/08/30 04:19:26;;;;;;;11.73;7.10;;;;;;;15.86;100.00;91146.88;5092970;28;20032;-67
2022/08/30 04:21:52;;;;;;;7.90;6.18;;;;;;;15.81;100.00;91155.16;5092935;28;20043;-67
2022/08/30 04:24:18;;;;;;;13.40;7.68;;;;;;;15.74;100.00;91165.63;5092833;28;20416;-67
2022/08/30 04:26:43;;;;;;;15.95;9.13;;;;;;;15.92;100.00;91160.84;5092875;28;20039;-67
2022/08/30 04:29:11;;;;;;;8.25;6.60;;;;;;;16.06;100.00;91155.13;5092747;28;20016;-67
2022/08/30 04:31:36;;;;;;;8.52;7.05;;;;;;;16.11;100.00;91166.44;5092694;28;20098;-67
2022/08/30 04:34:02;;;;;;;9.13;7.05;;;;;;;16.31;100.00;91164.75;5092564;28;20052;-67
2022/08/30 04:36:27;;;;;;;9.30;6.90;;;;;;;16.59;100.00;91162.16;5092597;28;20036;-67
2022/08/30 04:38:53;;;;;;;7.97;6.63;;;;;;;16.64;100.00;91164.59;5092853;28;20473;-67
2022/08/30 04:41:19;;;;;;;20.90;11.45;;;;;;;16.69;100.00;91171.66;5092569;28;20024;-67
2022/08/30 04:43:49;;;;;;;10.38;7.15;;;;;;;16.74;100.00;91168.75;5092457;28;20103;-67
2022/08/30 04:46:16;;;;;;;9.77;7.28;;;;;;;16.93;100.00;91160.84;5092555;28;20024;-67
2022/08/30 04:48:42;;;;;;;11.60;7.22;;;;;;;16.87;100.00;91166.78;5092301;28;20023;-67
2022/08/30 04:51:10;;;;;;;10.27;6.70;;;;;;;16.98;100.00;91165.97;5074147;28;20024;-67
2022/08/30 04:53:36;;;;;;;6.78;6.07;;;;;;;17.12;100.00;91170.19;5092334;28;20024;-67
2022/08/30 04:56:07;;;;;;;8.32;6.05;;;;;;;17.09;100.00;91160.13;5092407;28;20516;-67
2022/08/30 04:58:32;;;;;;;8.13;6.53;;;;;;;17.08;100.00;91163.94;5092200;28;20024;-67
2022/08/30 05:00:58;;;;;;;7.80;6.10;;;;;;;17.04;100.00;91178.06;5092195;28;20076;-67
2022/08/30 05:03:23;;;;;;;9.05;5.78;;;;;;;17.05;100.00;91178.84;5092061;28;20024;-67
2022/08/30 05:05:49;;;;;;;10.02;7.68;;;;;;;17.06;100.00;91177.72;5091819;28;20044;-67
2022/08/30 05:08:18;;;;;;;12.25;6.20;;;;;;;17.24;100.00;91180.91;5092019;28;20115;-67
2022/08/30 05:10:46;;;;;;;9.50;6.38;;;;;;;17.30;100.00;91177.59;5092005;28;20032;-67
2022/08/30 05:13:13;;;;;;;67.18;38.05;;;;;;;17.45;100.00;91178.00;5091978;28;20050;-67
2022/08/30 05:15:39;;;;;;;103.75;59.20;;;;;;;17.45;100.00;91176.09;5091855;28;20082;-67
2022/08/30 05:18:06;;;;;;;103.63;55.97;;;;;;;17.71;100.00;91175.66;5091798;28;20023;-67
2022/08/30 05:20:33;;;;;;;10.30;7.00;;;;;;;17.86;100.00;91179.47;5091805;28;20028;-67
2022/08/30 05:22:59;;;;;;;51.13;31.13;;;;;;;18.23;100.00;91172.69;5091663;28;20127;-67
2022/08/30 05:25:28;;;;;;;10.23;7.63;;;;;;;18.54;100.00;91174.56;5091584;28;20202;-68
2022/08/30 05:27:54;;;;;;;8.90;6.57;;;;;;;18.64;100.00;91175.97;5091068;28;20531;-67
2022/08/30 05:30:21;;;;;;;9.20;6.88;;;;;;;18.50;100.00;91170.25;5091877;28;20066;-67
2022/08/30 05:32:46;;;;;;;8.57;6.43;;;;;;;18.59;100.00;91167.34;5091890;28;20488;-65
2022/08/30 05:35:13;;;;;;;8.05;6.40;;;;;;;18.69;100.00;91175.69;5091034;28;20042;-65
2022/08/30 05:37:39;;;;;;;10.25;7.38;;;;;;;18.79;100.00;91182.47;5091279;28;20471;-67
2022/08/30 05:40:05;;;;;;;10.63;6.38;;;;;;;18.98;100.00;91179.00;5091506;28;20032;-67
2022/08/30 05:42:35;;;;;;;8.15;6.40;;;;;;;19.15;100.00;91176.69;5091673;28;20051;-68
2022/08/30 05:45:02;;;;;;;8.05;6.68;;;;;;;19.36;100.00;91176.31;5091354;28;20028;-67
2022/08/30 05:47:27;;;;;;;8.55;7.03;;;;;;;20.28;100.00;91179.13;5091614;28;20473;-67
2022/08/30 05:49:53;;;;;;;12.82;7.25;;;;;;;21.42;100.00;91175.38;5091376;28;20031;-67
2022/08/30 05:52:18;;;;;;;6.97;5.63;;;;;;;23.83;89.19;91175.75;5091359;28;20462;-68
2022/08/30 05:54:44;;;;;;;8.82;6.22;;;;;;;25.60;69.97;91180.41;5091325;28;20066;-68
2022/08/30 05:57:10;;;;;;;8.80;7.20;;;;;;;26.91;65.13;91180.06;5091357;28;20028;-68
2022/08/30 05:59:36;;;;;;;8.98;7.30;;;;;;;27.42;62.88;91176.47;5091361;28;20036;-68
2022/08/30 06:02:03;;;;;;;9.63;7.03;;;;;;;26.97;60.83;91184.69;5091314;28;20089;-68
2022/08/30 06:04:28;;;;;;;10.48;6.40;;;;;;;24.56;67.14;91178.19;5090789;28;20036;-69
2022/08/30 06:06:54;;;;;;;12.13;6.90;;;;;;;25.28;68.15;91177.78;5068353;28;20032;-68
2022/08/30 06:09:20;;;;;;;10.00;6.18;;;;;;;26.96;61.58;91180.41;5071048;28;20032;-68
2022/08/30 06:11:47;;;;;;;7.88;5.88;;;;;;;28.92;55.51;91184.34;5070898;28;20413;-68
2022/08/30 06:14:13;;;;;;;6.80;6.07;;;;;;;28.91;54.03;91188.28;5070755;28;20029;-67
2022/08/30 06:16:39;;;;;;;7.13;5.45;;;;;;;28.71;54.08;91192.06;5070682;28;20526;-69
2022/08/30 06:19:07;;;;;;;7.60;5.95;;;;;;;29.59;53.55;91197.34;5070787;28;20024;-68
2022/08/30 06:21:35;;;;;;;11.15;6.38;;;;;;;30.52;51.98;91202.53;5070178;28;20481;-68
2022/08/30 06:24:03;;;;;;;11.50;7.80;;;;;;;30.82;50.77;91200.75;5070293;28;20027;-68
2022/08/30 06:26:29;;;;;;;9.02;6.80;;;;;;;30.35;52.22;91207.22;5070675;28;20123;-68
2022/08/30 06:28:56;;;;;;;10.35;8.05;;;;;;;31.70;48.36;91203.28;5070569;28;20417;-68
2022/08/30 06:31:23;;;;;;;9.68;7.13;;;;;;;31.68;48.84;91204.91;5070658;28;20032;-67
2022/08/30 06:33:50;;;;;;;7.35;5.88;;;;;;;31.80;48.05;91205.00;5070384;28;20060;-68
2022/08/30 06:36:20;;;;;;;9.63;6.90;;;;;;;32.16;46.79;91210.31;5070110;28;20032;-67
2022/08/30 06:38:49;;;;;;;9.63;6.55;;;;;;;33.53;44.78;91208.59;5072089;28;20025;-67
2022/08/30 06:41:19;;;;;;;9.82;7.90;;;;;;;34.74;42.39;91209.09;5074442;28;20025;-67
2022/08/30 06:43:44;;;;;;;12.02;7.07;;;;;;;32.54;45.53;91206.16;5074336;28;20025;-67
2022/08/30 06:46:13;;;;;;;9.25;6.60;;;;;;;30.69;49.82;91212.38;5074151;28;20031;-67
2022/08/30 06:48:38;;;;;;;7.25;5.75;;;;;;;30.35;50.97;91204.47;5074175;28;20029;-67
2022/08/30 06:51:04;;;;;;;8.82;6.47;;;;;;;30.05;50.13;91210.19;5073642;28;20036;-67
2022/08/30 06:53:30;;;;;;;8.13;6.68;;;;;;;28.52;53.58;91204.47;5074053;28;20482;-67
2022/08/30 06:55:57;;;;;;;8.02;6.28;;;;;;;28.14;53.83;91212.00;5074061;28;20040;-67
2022/08/30 06:58:23;;;;;;;10.07;6.70;;;;;;;27.45;55.73;91206.50;5073929;28;20055;-67
2022/08/30 07:00:48;;;;;;;9.15;5.80;;;;;;;26.31;59.88;91217.47;5073928;28;20034;-68
2022/08/30 07:03:14;;;;;;;9.05;6.38;;;;;;;25.61;62.81;91217.38;5074017;28;20021;-68
2022/08/30 07:05:40;;;;;;;8.13;5.90;;;;;;;25.55;64.60;91221.66;5073207;28;20464;-68
2022/08/30 07:08:05;;;;;;;10.73;6.78;;;;;;;26.18;68.98;91216.38;5073896;28;20029;-68
2022/08/30 07:10:31;;;;;;;8.18;6.60;;;;;;;26.19;69.26;91218.72;5073910;28;20032;-68
2022/08/30 07:12:56;;;;;;;10.27;7.05;;;;;;;25.16;78.12;91218.25;5073793;28;20063;-68
2022/08/30 07:15:22;;;;;;;10.30;7.55;;;;;;;25.09;79.70;91210.88;5073678;28;20063;-68
2022/08/30 07:20:32;;;;;;;8.65;6.85;;;;;;;24.52;88.90;91210.84;5073275;28;20099;-67
2022/08/30 07:22:58;;;;;;;14.60;7.72;;;;;;;23.97;96.94;91207.59;5073413;28;20031;-68
2022/08/30 07:25:23;;;;;;;11.18;7.80;;;;;;;23.29;100.00;91207.28;5073476;28;20520;-68
2022/08/30 07:27:50;;;;;;;14.20;8.20;;;;;;;23.37;100.00;91211.59;5073581;28;20480;-66
2022/08/30 07:30:16;;;;;;;10.95;7.95;;;;;;;23.95;99.06;91220.78;5073455;28;20029;-66
2022/08/30 07:32:42;;;;;;;9.88;6.65;;;;;;;23.73;97.95;91215.28;5073386;28;20455;-67
2022/08/30 07:35:07;;;;;;;9.65;7.28;;;;;;;24.67;88.66;91214.34;5073015;28;20077;-66
2022/08/30 07:37:33;;;;;;;9.25;7.00;;;;;;;26.43;78.32;91213.56;5073314;28;20044;-66
2022/08/30 07:39:58;;;;;;;7.07;6.07;;;;;;;29.82;60.39;91210.97;5055295;28;20493;-67
2022/08/30 07:42:23;;;;;;;8.73;6.15;;;;;;;34.14;48.30;91218.34;5073291;28;20117;-67
2022/08/30 07:44:49;;;;;;;11.77;6.97;;;;;;;35.63;44.84;91217.47;5073188;28;20024;-68
2022/08/30 07:47:15;;;;;;;6.90;5.95;;;;;;;34.58;44.29;91217.59;5073237;28;20031;-68
2022/08/30 07:49:41;;;;;;;10.25;6.25;;;;;;;34.45;43.90;91215.69;5072282;28;20040;-67
2022/08/30 07:52:08;;;;;;;11.18;6.88;;;;;;;34.42;44.06;91208.31;5072996;28;20038;-67
2022/08/30 07:54:33;;;;;;;9.55;5.97;;;;;;;35.91;41.29;91214.75;5072983;28;20033;-66
2022/08/30 07:56:58;;;;;;;8.25;5.82;;;;;;;35.59;40.71;91213.31;5072709;28;20108;-67
2022/08/30 07:59:24;;;;;;;9.55;5.97;;;;;;;37.10;36.83;91206.34;5072946;28;20086;-66
2022/08/30 08:01:49;;;;;;;5.07;4.40;;;;;;;38.91;34.98;91207.63;5072952;28;20021;-66
2022/08/30 08:04:15;;;;;;;6.40;4.88;;;;;;;38.19;35.23;91204.22;5072191;28;20032;-66
2022/08/30 08:06:41;;;;;;;8.75;5.25;;;;;;;40.79;33.09;91209.25;5072589;28;20106;-69
2022/08/30 08:09:07;;;;;;;7.20;5.00;;;;;;;40.31;32.56;91209.72;5072797;28;20548;-67
2022/08/30 08:11:34;;;;;;;5.88;5.15;;;;;;;39.73;33.12;91214.25;5054707;28;20036;-66
2022/08/30 08:14:01;;;;;;;16.95;11.77;;;;;;;37.60;35.63;91203.97;5072589;28;20032;-66
2022/08/30 08:16:29;;;;;;;24.88;18.65;;;;;;;37.87;35.69;91211.38;5072303;28;20421;-65
2022/08/30 08:18:54;;;;;;;6.97;5.68;;;;;;;36.77;36.94;91212.59;5072178;28;20028;-66
2022/08/30 08:21:21;;;;;;;8.48;6.30;;;;;;;38.32;35.98;91205.50;5072407;28;20509;-66
2022/08/30 08:23:47;;;;;;;8.98;6.18;;;;;;;39.26;34.65;91207.69;5071752;28;20489;-67
2022/08/30 08:26:13;;;;;;;8.00;5.40;;;;;;;37.71;36.45;91196.63;5072331;28;20064;-67
2022/08/30 08:28:39;;;;;;;7.07;6.32;;;;;;;36.24;37.59;91192.75;5054012;28;20520;-66
2022/08/30 08:31:26;;;;;;;7.28;6.18;;;;;;;36.26;38.93;91193.84;5072344;28;20032;-65
2022/08/30 08:33:51;;;;;;;8.95;6.25;;;;;;;35.72;39.67;91202.88;5071646;28;20032;-65
2022/08/30 08:36:17;;;;;;;8.43;6.28;;;;;;;34.30;41.61;91200.06;5072037;28;20028;-66
2022/08/30 08:38:43;;;;;;;7.22;5.70;;;;;;;36.19;39.39;91201.69;5072096;28;20032;-66
2022/08/30 08:41:37;;;;;;;11.43;5.78;;;;;;;37.22;37.73;91201.81;5072088;28;20043;-66
2022/08/30 08:44:50;;;;;;;7.75;5.72;;;;;;;36.96;38.06;91199.47;5071893;28;20135;-66
2022/08/30 08:47:26;;;;;;;9.15;6.80;;;;;;;35.50;39.82;91202.19;4995673;28;20500;-66
2022/08/30 08:49:56;;;;;;;12.30;6.78;;;;;;;34.11;42.63;91199.94;5053671;28;20028;-66
2022/08/30 08:55:28;;;;;;;10.80;7.47;;;;;;;32.92;45.77;91189.66;5071937;28;20078;-66
2022/08/30 08:57:55;;;;;;;9.30;5.85;;;;;;;33.58;43.75;91191.47;5071586;28;20029;-66
2022/08/30 09:00:21;;;;;;;7.82;6.10;;;;;;;32.46;44.64;91189.03;5071675;28;20033;-66
2022/08/30 09:02:56;;;;;;;8.45;5.50;;;;;;;32.91;43.73;91190.88;5070130;28;20394;-65
2022/08/30 09:05:24;;;;;;;8.30;5.50;;;;;;;35.15;41.94;91202.38;5071252;28;20086;-65
2022/08/30 09:08:10;;;;;;;6.85;5.38;;;;;;;38.12;38.54;91194.22;5071657;28;20158;-63
2022/08/30 09:10:37;;;;;;;6.55;5.85;;;;;;;38.43;37.58;91195.84;5071496;28;20032;-64
2022/08/30 09:13:02;;;;;;;10.27;5.03;;;;;;;39.13;34.95;91187.75;5071528;28;20052;-65
2022/08/30 09:15:31;;;;;;;5.82;4.60;;;;;;;38.26;35.09;91196.31;5071394;28;20501;-64
2022/08/30 09:18:06;;;;;;;7.43;5.15;;;;;;;38.73;34.53;91191.88;5070881;28;20490;-65
2022/08/30 09:20:34;;;;;;;15.50;11.40;;;;;;;39.92;33.61;91200.81;5071187;28;20504;-65
2022/08/30 09:23:17;;;;;;;7.82;4.97;;;;;;;42.70;30.19;91198.09;5071037;28;20111;-64
2022/08/30 09:25:58;;;;;;;8.80;6.22;;;;;;;42.43;30.13;91194.66;5071437;28;20024;-65
2022/08/30 09:28:32;;;;;;;6.20;5.25;;;;;;;37.49;34.68;91187.84;5071076;28;20068;-64
2022/08/30 09:31:16;;;;;;;8.02;4.80;;;;;;;36.91;34.92;91177.88;5071186;28;20028;-64
2022/08/30 09:34:06;;;;;;;6.65;4.97;;;;;;;34.22;37.45;91188.47;5070705;28;20032;-64
2022/08/30 09:36:44;;;;;;;8.45;5.20;;;;;;;33.73;38.94;91177.94;5071182;28;20066;-65
2022/08/30 09:39:36;;;;;;;5.55;4.70;;;;;;;31.91;41.71;91188.22;5071339;28;20040;-65
2022/08/30 09:42:20;;;;;;;6.38;4.90;;;;;;;31.55;42.05;91171.84;5059586;28;20488;-64
2022/08/30 09:44:45;;;;;;;6.35;4.88;;;;;;;33.11;40.97;91183.13;5070780;28;20528;-65
2022/08/30 09:47:20;;;;;;;6.70;6.10;;;;;;;34.20;40.88;91183.41;5071064;28;20033;-64
2022/08/30 09:49:46;;;;;;;10.18;5.55;;;;;;;32.59;42.36;91180.81;5070951;28;20081;-65
2022/08/30 09:52:21;;;;;;;8.57;5.90;;;;;;;28.84;48.26;91184.84;5070259;28;20136;-63
2022/08/30 09:55:01;;;;;;;11.05;6.15;;;;;;;27.35;51.36;91184.75;5070695;28;20093;-64
2022/08/30 09:57:59;;;;;;;7.10;5.60;;;;;;;27.33;51.48;91187.91;5070708;28;20430;-64
2022/08/30 10:00:30;;;;;;;9.18;5.50;;;;;;;26.81;52.98;91192.59;5063509;28;20037;-63
2022/08/30 10:03:04;;;;;;;8.05;6.72;;;;;;;26.27;57.40;91184.00;5070203;28;20457;-63
2022/08/30 10:05:48;;;;;;;9.25;6.85;;;;;;;25.82;61.03;91202.16;5070466;28;20074;-64
2022/08/30 10:08:22;;;;;;;9.90;6.72;;;;;;;25.90;61.55;91195.50;5070873;28;20509;-63
2022/08/30 10:10:57;;;;;;;8.07;6.25;;;;;;;25.67;61.38;91204.13;5070852;28;20040;-63
2022/08/30 10:13:42;;;;;;;9.05;6.05;;;;;;;25.86;60.06;91203.66;5071946;28;20021;-64
2022/08/30 10:16:13;;;;;;;8.68;6.45;;;;;;;25.16;64.81;91204.63;5075028;28;20064;-63
2022/08/30 10:19:14;;;;;;;9.00;6.68;;;;;;;24.82;67.61;91212.41;5074956;28;20098;-64
2022/08/30 10:21:49;;;;;;;10.88;7.20;;;;;;;24.66;70.85;91223.69;5074632;28;20028;-63
2022/08/30 10:24:18;;;;;;;9.75;7.15;;;;;;;24.44;69.60;91214.72;5056759;28;20028;-64
2022/08/30 10:26:50;;;;;;;10.25;7.25;;;;;;;24.31;71.18;91210.81;5074471;28;20032;-64
2022/08/30 10:29:30;;;;;;;11.18;8.23;;;;;;;24.25;74.33;91213.09;5074768;28;20032;-64
2022/08/30 10:32:01;;;;;;;11.95;7.05;;;;;;;24.15;76.36;91219.31;5074731;28;20512;-67
2022/08/30 10:34:39;;;;;;;10.65;6.05;;;;;;;23.44;71.17;91219.78;5074588;28;20024;-67
2022/08/30 10:37:20;;;;;;;6.90;6.03;;;;;;;23.34;71.94;91228.63;5074568;28;20471;-67
2022/08/30 10:39:50;;;;;;;10.25;6.70;;;;;;;23.13;73.83;91226.56;5074660;28;20024;-67
2022/08/30 10:42:31;;;;;;;8.50;6.40;;;;;;;22.79;75.66;91223.22;5074552;28;20028;-68
2022/08/30 10:45:04;;;;;;;12.57;6.20;;;;;;;22.70;79.58;91231.66;5074350;28;20032;-68
2022/08/30 10:47:42;;;;;;;9.73;6.95;;;;;;;22.80;80.98;91229.41;5074474;28;20044;-67
2022/08/30 10:50:23;;;;;;;12.60;8.55;;;;;;;22.93;83.04;91228.78;5074205;28;20042;-68
2022/08/30 10:53:23;;;;;;;9.63;6.82;;;;;;;23.00;81.18;91228.03;5074298;28;20187;-68
2022/08/30 10:55:53;;;;;;;10.93;7.43;;;;;;;23.20;79.82;91232.06;5074190;28;20039;-67
2022/08/30 10:58:19;;;;;;;8.15;6.22;;;;;;;23.44;75.63;91236.06;5074180;28;20163;-67
2022/08/30 11:01:19;;;;;;;8.45;6.05;;;;;;;22.91;79.14;91230.31;5074153;28;20482;-68
2022/08/30 11:03:54;;;;;;;9.38;6.70;;;;;;;22.55;83.86;91240.03;5074029;28;20088;-68
2022/08/30 11:06:44;;;;;;;9.57;6.55;;;;;;;22.26;86.37;91239.81;5073944;28;20136;-67
2022/08/30 11:10:00;;;;;;;8.55;5.82;;;;;;;22.22;85.70;91244.38;5074088;28;20029;-68
2022/08/30 11:12:50;;;;;;;10.63;7.40;;;;;;;21.75;91.44;91243.06;5018960;28;20047;-68
2022/08/30 11:15:19;;;;;;;14.82;7.75;;;;;;;21.63;97.29;91245.28;5073798;28;20409;-67
2022/08/30 11:17:55;;;;;;;12.77;7.63;;;;;;;21.35;100.00;91240.25;5073914;28;20480;-68
2022/08/30 11:20:41;;;;;;;10.77;6.53;;;;;;;20.98;100.00;91240.09;5073809;28;20028;-67
2022/08/30 11:23:34;;;;;;;17.23;8.93;;;;;;;21.00;100.00;91244.00;5073760;28;20555;-68
2022/08/30 11:26:08;;;;;;;;;;;;;;;21.06;100.00;91233.66;5073238;28;20028;-67
2022/08/30 11:28:36;;;;;;;14.05;8.05;;;;;;;20.99;100.00;91231.63;5074017;28;20297;-67
2022/08/30 11:31:05;;;;;;;9.68;6.55;;;;;;;20.83;100.00;91231.78;5073694;28;20028;-67
2022/08/30 11:33:49;;;;;;;12.55;7.78;;;;;;;20.86;100.00;91231.06;5073640;28;20028;-67
2022/08/30 11:36:31;;;;;;;10.60;7.72;;;;;;;20.89;100.00;91234.94;5073783;28;20040;-67
2022/08/30 11:39:07;;;;;;;11.55;7.05;;;;;;;20.83;100.00;91226.38;5073512;28;20111;-67
2022/08/30 11:41:46;;;;;;;10.63;6.70;;;;;;;21.01;100.00;91226.63;5073484;28;20401;-67